createdAt,value
2022-08-10T00:01:54.330Z,83.66
2022-08-10T00:04:24.419Z,83.72
2022-08-10T00:06:53.901Z,83.77
2022-08-10T00:09:24.242Z,83.77
2022-08-10T00:11:52.298Z,83.77
2022-08-10T00:14:20.374Z,83.82
2022-08-10T00:16:48.551Z,84.12
2022-08-10T00:19:18.171Z,84.37
2022-08-10T00:21:48.387Z,84.24
2022-08-10T00:24:16.655Z,84.16
2022-08-10T00:27:52.660Z,84.23
2022-08-10T00:29:33.558Z,84.32
2022-08-10T00:32:02.159Z,84.51
2022-08-10T00:34:33.263Z,84.45
2022-08-10T00:37:02.209Z,84.53
2022-08-10T00:39:34.464Z,84.74
2022-08-10T00:42:08.461Z,84.78
2022-08-10T00:44:42.038Z,84.67
2022-08-10T00:47:22.550Z,84.64
2022-08-10T00:49:59.716Z,84.74
2022-08-10T00:52:34.653Z,84.79
2022-08-10T00:55:05.437Z,84.90
2022-08-10T00:57:35.740Z,84.90
2022-08-10T01:00:06.561Z,85.04
2022-08-10T01:02:34.983Z,85.32
2022-08-10T01:05:10.199Z,85.36
2022-08-10T01:08:04.852Z,85.45
2022-08-10T01:10:59.049Z,85.59
2022-08-10T01:13:42.791Z,85.66
2022-08-10T01:16:16.595Z,85.72
2022-08-10T01:19:02.777Z,85.82
2022-08-10T01:22:01.062Z,85.82
2022-08-10T01:24:47.360Z,85.83
2022-08-10T01:27:39.085Z,85.72
2022-08-10T01:30:14.449Z,85.85
2022-08-10T01:32:48.646Z,85.98
2022-08-10T01:35:50.186Z,86.05
2022-08-10T01:38:34.959Z,86.19
2022-08-10T01:41:12.951Z,86.23
2022-08-10T01:43:58.943Z,86.13
2022-08-10T01:46:35.216Z,86.16
2022-08-10T01:49:08.907Z,86.44
2022-08-10T01:51:49.272Z,86.69
2022-08-10T01:54:21.535Z,86.58
2022-08-10T01:56:54.221Z,86.46
2022-08-10T01:59:40.459Z,86.56
2022-08-10T02:02:12.007Z,86.49
2022-08-10T02:04:43.718Z,86.43
2022-08-10T02:07:16.499Z,86.50
2022-08-10T02:09:53.889Z,86.50
2022-08-10T02:12:30.388Z,86.51
2022-08-10T02:15:04.361Z,86.69
2022-08-10T02:17:59.003Z,86.89
2022-08-10T02:20:31.660Z,86.80
2022-08-10T02:23:05.555Z,86.85
2022-08-10T02:25:41.774Z,86.85
2022-08-10T02:28:30.523Z,86.78
2022-08-10T02:31:11.769Z,86.78
2022-08-10T02:33:56.702Z,86.84
2022-08-10T02:36:31.543Z,86.82
2022-08-10T02:39:03.891Z,86.93
2022-08-10T02:45:14.713Z,87.00
2022-08-10T02:45:22.446Z,86.95
2022-08-10T02:47:51.131Z,87.00
2022-08-10T02:50:27.837Z,87.03
2022-08-10T02:53:56.479Z,86.93
2022-08-10T02:56:32.602Z,87.07
2022-08-10T02:59:40.363Z,87.21
2022-08-10T03:02:14.875Z,87.21
2022-08-10T03:04:58.093Z,87.25
2022-08-10T03:07:43.153Z,87.31
2022-08-10T03:10:20.706Z,87.51
2022-08-10T03:12:53.234Z,87.68
2022-08-10T03:15:27.906Z,87.75
2022-08-10T03:17:59.216Z,87.85
2022-08-10T03:20:38.274Z,87.93
2022-08-10T03:23:18.750Z,87.84
2022-08-10T03:25:53.111Z,87.87
2022-08-10T03:28:27.482Z,87.90
2022-08-10T03:30:59.863Z,87.97
2022-08-10T03:33:32.948Z,87.97
2022-08-10T03:36:41.907Z,87.93
2022-08-10T03:38:53.617Z,88.04
2022-08-10T03:41:35.611Z,88.17
2022-08-10T03:44:07.084Z,88.13
2022-08-10T03:46:38.757Z,88.06
2022-08-10T03:49:07.857Z,88.12
2022-08-10T03:51:39.487Z,88.13
2022-08-10T03:54:08.745Z,88.14
2022-08-10T03:56:39.078Z,88.20
2022-08-10T03:59:14.399Z,88.19
2022-08-10T04:02:52.879Z,88.06
2022-08-10T04:04:33.875Z,88.06
2022-08-10T04:07:04.936Z,87.98
2022-08-10T04:09:53.476Z,87.99
2022-08-10T04:12:24.969Z,87.96
2022-08-10T04:14:53.878Z,87.90
2022-08-10T04:18:03.692Z,87.89
2022-08-10T04:20:26.288Z,87.80
2022-08-10T04:23:28.048Z,87.73
2022-08-10T04:25:57.027Z,87.69
2022-08-10T04:28:26.750Z,87.65
2022-08-10T04:30:57.586Z,87.60
2022-08-10T04:33:27.553Z,87.52
2022-08-10T04:35:57.321Z,87.41
2022-08-10T04:38:26.647Z,87.33
2022-08-10T04:40:55.090Z,87.24
2022-08-10T04:43:23.436Z,87.11
2022-08-10T04:45:52.018Z,86.98
2022-08-10T04:48:43.325Z,86.85
2022-08-10T04:51:17.763Z,86.75
2022-08-10T04:54:03.793Z,86.68
2022-08-10T04:56:37.482Z,86.58
2022-08-10T04:59:07.896Z,86.43
2022-08-10T05:02:28.811Z,86.36
2022-08-10T05:04:34.386Z,86.22
2022-08-10T05:07:16.563Z,86.03
2022-08-10T05:10:03.559Z,85.89
2022-08-10T05:12:38.976Z,85.71
2022-08-10T05:15:12.690Z,85.49
2022-08-10T05:18:08.162Z,85.27
2022-08-10T05:20:37.950Z,85.08
2022-08-10T05:23:06.043Z,84.94
2022-08-10T05:25:38.298Z,84.74
2022-08-10T05:28:07.091Z,84.47
2022-08-10T05:30:35.259Z,84.20
2022-08-10T05:33:08.028Z,83.94
2022-08-10T05:35:56.312Z,83.60
2022-08-10T05:38:28.473Z,83.35
2022-08-10T05:41:02.800Z,83.28
2022-08-10T05:43:31.181Z,82.09
2022-08-10T05:46:18.349Z,78.64
2022-08-10T05:48:56.791Z,74.73
2022-08-10T05:51:30.374Z,70.78
2022-08-10T05:54:05.689Z,67.44
2022-08-10T05:56:57.033Z,64.23
2022-08-10T06:00:30.814Z,61.45
2022-08-10T06:02:33.641Z,59.51
2022-08-10T06:05:11.326Z,58.08
2022-08-10T06:07:48.818Z,57.46
2022-08-10T06:10:31.629Z,56.82
2022-08-10T06:13:26.703Z,56.50
2022-08-10T06:15:57.465Z,56.73
2022-08-10T06:18:26.250Z,57.90
2022-08-10T06:21:01.010Z,59.44
2022-08-10T06:23:30.899Z,60.32
2022-08-10T06:26:10.762Z,61.02
2022-08-10T06:29:03.760Z,61.84
2022-08-10T06:31:53.879Z,63.55
2022-08-10T06:34:26.318Z,64.96
2022-08-10T06:36:59.744Z,65.84
2022-08-10T06:39:36.568Z,66.13
2022-08-10T06:42:20.155Z,64.70
2022-08-10T06:45:06.792Z,61.74
2022-08-10T06:47:45.230Z,59.02
2022-08-10T06:50:58.089Z,56.69
2022-08-10T06:53:52.279Z,56.44
2022-08-10T06:56:37.514Z,55.83
2022-08-10T06:59:21.818Z,55.97
2022-08-10T07:02:09.948Z,55.50
2022-08-10T07:04:44.862Z,54.45
2022-08-10T07:07:19.805Z,52.84
2022-08-10T07:09:51.405Z,52.10
2022-08-10T07:12:22.506Z,52.30
2022-08-10T07:14:52.218Z,52.59
2022-08-10T07:17:24.487Z,52.80
2022-08-10T07:19:58.186Z,52.80
2022-08-10T07:23:22.682Z,53.96
2022-08-10T07:25:25.349Z,56.05
2022-08-10T07:27:58.637Z,57.43
2022-08-10T07:30:37.470Z,58.36
2022-08-10T07:33:07.741Z,58.11
2022-08-10T07:35:42.713Z,58.58
2022-08-10T07:38:18.408Z,56.58
2022-08-10T07:40:49.167Z,56.13
2022-08-10T07:43:20.684Z,54.75
2022-08-10T07:45:50.076Z,53.46
2022-08-10T07:48:34.730Z,50.10
2022-08-10T07:51:04.444Z,48.72
2022-08-10T07:53:38.842Z,46.92
2022-08-10T07:56:21.226Z,45.56
2022-08-10T07:59:09.731Z,43.83
2022-08-10T08:01:50.873Z,43.34
2022-08-10T08:04:24.266Z,42.82
2022-08-10T08:06:54.299Z,41.38
2022-08-10T08:09:25.092Z,40.63
2022-08-10T08:11:55.246Z,40.35
2022-08-10T08:14:24.553Z,39.82
2022-08-10T08:16:55.490Z,39.23
2022-08-10T08:19:35.430Z,39.75
2022-08-10T08:24:06.310Z,39.93
2022-08-10T08:24:57.552Z,38.59
2022-08-10T08:27:27.545Z,40.06
2022-08-10T08:29:56.322Z,41.86
2022-08-10T08:32:28.146Z,42.37
2022-08-10T08:35:02.394Z,43.39
2022-08-10T08:38:30.242Z,42.29
2022-08-10T08:40:33.990Z,41.02
2022-08-10T08:43:31.503Z,39.62
2022-08-10T08:46:18.634Z,38.64
2022-08-10T08:49:03.542Z,37.77
2022-08-10T08:52:07.801Z,37.90
2022-08-10T08:55:52.342Z,36.94
2022-08-10T13:52:12.855Z,38.00
2022-08-10T13:54:43.085Z,34.13
2022-08-10T13:57:12.796Z,31.42
2022-08-10T14:00:36.476Z,28.97
2022-08-10T14:02:58.835Z,28.82
2022-08-10T14:05:38.130Z,29.01
2022-08-10T14:08:12.793Z,28.82
2022-08-10T14:11:10.103Z,30.26
2022-08-10T14:13:36.375Z,31.95
2022-08-10T14:16:07.568Z,33.06
2022-08-10T14:18:37.556Z,34.21
2022-08-10T14:21:06.667Z,35.67
2022-08-10T14:23:52.625Z,36.89
2022-08-10T14:26:26.963Z,38.01
2022-08-10T14:29:02.879Z,38.47
2022-08-10T14:31:33.994Z,38.47
2022-08-10T14:34:05.732Z,39.14
2022-08-10T14:37:05.715Z,39.57
2022-08-10T14:39:45.250Z,39.95
2022-08-10T14:42:27.777Z,40.15
2022-08-10T14:45:02.558Z,40.55
2022-08-10T14:47:56.031Z,41.44
2022-08-10T14:50:32.325Z,41.99
2022-08-10T14:53:26.547Z,42.69
2022-08-10T14:56:02.148Z,41.57
2022-08-10T14:59:05.666Z,40.25
2022-08-10T15:02:38.178Z,36.67
2022-08-10T15:04:26.690Z,35.93
2022-08-10T15:07:12.215Z,33.91
2022-08-10T15:10:00.469Z,33.35
2022-08-10T15:12:36.227Z,34.05
2022-08-10T15:15:09.732Z,35.67
2022-08-10T15:17:43.380Z,36.55
2022-08-10T15:20:21.215Z,38.13
2022-08-10T15:23:01.384Z,38.74
2022-08-10T15:25:30.714Z,39.54
2022-08-10T15:28:10.617Z,40.54
2022-08-10T15:30:51.715Z,41.30
2022-08-10T15:34:02.395Z,41.80
2022-08-10T15:37:02.347Z,42.23
2022-08-10T15:40:26.079Z,42.23
2022-08-10T15:42:55.461Z,42.99
2022-08-10T15:45:27.100Z,43.48
2022-08-10T15:48:03.361Z,43.23
2022-08-10T15:50:44.064Z,43.07
2022-08-10T15:53:28.398Z,43.60
2022-08-10T15:56:06.919Z,43.61
2022-08-10T15:58:41.468Z,43.57
2022-08-10T16:02:15.006Z,43.95
2022-08-10T16:04:11.655Z,44.11
2022-08-10T16:06:56.124Z,44.39
2022-08-10T16:10:22.016Z,44.67
2022-08-10T16:13:00.144Z,44.99
2022-08-10T16:15:31.983Z,45.01
2022-08-10T16:18:29.388Z,45.31
2022-08-10T16:21:03.250Z,45.83
2022-08-10T16:23:38.048Z,45.90
2022-08-10T16:26:14.931Z,46.19
2022-08-10T16:29:02.934Z,46.19
2022-08-10T16:31:35.271Z,46.07
2022-08-10T16:34:08.064Z,46.06
2022-08-10T16:36:47.820Z,46.33
2022-08-10T16:40:00.127Z,46.37
2022-08-10T16:42:49.480Z,46.03
2022-08-10T16:45:41.675Z,46.36
2022-08-10T16:48:11.392Z,46.80
2022-08-10T16:50:45.723Z,46.62
2022-08-10T16:53:17.463Z,47.07
2022-08-10T16:56:07.253Z,47.43
2022-08-10T16:58:39.360Z,47.83
2022-08-10T17:01:37.164Z,48.29
2022-08-10T17:04:10.206Z,48.39
2022-08-10T17:06:43.342Z,48.72
2022-08-10T17:09:24.149Z,49.06
2022-08-10T17:11:55.733Z,48.89
2022-08-10T17:14:29.069Z,48.63
2022-08-10T17:17:03.005Z,48.06
2022-08-10T17:19:37.845Z,47.98
2022-08-10T17:22:21.405Z,47.84
2022-08-10T17:24:55.525Z,47.95
2022-08-10T17:28:04.318Z,48.38
2022-08-10T17:30:34.343Z,48.49
2022-08-10T17:33:19.803Z,48.57
2022-08-10T17:35:50.741Z,48.89
2022-08-10T17:38:26.435Z,49.08
2022-08-10T17:40:56.856Z,49.16
2022-08-10T17:43:58.427Z,49.25
2022-08-10T17:46:17.571Z,49.79
2022-08-10T17:48:45.615Z,50.17
2022-08-10T17:51:16.364Z,50.36
2022-08-10T17:53:50.832Z,51.09
2022-08-10T17:56:23.242Z,51.59
2022-08-10T17:58:58.215Z,52.04
2022-08-10T18:01:41.501Z,52.90
2022-08-10T18:04:20.454Z,53.36
2022-08-10T18:06:58.466Z,53.63
2022-08-10T18:09:50.217Z,53.89
2022-08-10T18:12:53.333Z,55.11
2022-08-10T18:15:27.965Z,55.66
2022-08-10T18:18:01.175Z,56.14
2022-08-10T18:20:37.840Z,56.94
2022-08-10T18:23:09.200Z,57.51
2022-08-10T18:25:40.585Z,57.93
2022-08-10T18:28:15.281Z,58.46
2022-08-10T18:30:50.803Z,59.55
2022-08-10T18:33:27.122Z,60.28
2022-08-10T18:36:00.793Z,60.31
2022-08-10T18:38:30.894Z,60.46
2022-08-10T18:41:15.859Z,60.89
2022-08-10T18:44:04.678Z,61.21
2022-08-10T18:46:52.760Z,61.66
2022-08-10T18:49:27.697Z,62.18
2022-08-10T18:51:59.405Z,62.86
2022-08-10T18:54:44.176Z,63.11
2022-08-10T18:57:51.395Z,63.61
2022-08-10T19:00:22.298Z,64.06
2022-08-10T19:03:22.052Z,63.85
2022-08-10T19:06:38.761Z,64.04
2022-08-10T19:09:45.879Z,63.91
2022-08-10T19:12:30.062Z,64.70
2022-08-10T19:15:28.581Z,64.45
2022-08-10T19:18:42.120Z,64.67
2022-08-10T19:21:43.116Z,64.75
2022-08-10T19:24:37.097Z,65.47
2022-08-10T19:27:15.637Z,65.64
2022-08-10T19:30:08.309Z,65.92
2022-08-10T19:33:20.505Z,66.23
2022-08-10T19:36:35.992Z,66.34
2022-08-10T19:39:31.625Z,66.63
2022-08-10T19:42:35.316Z,67.80
2022-08-10T19:46:00.887Z,67.91
2022-08-10T19:48:20.100Z,68.01
2022-08-10T19:51:18.881Z,68.58
2022-08-10T19:53:51.356Z,68.95
2022-08-10T19:56:39.204Z,69.19
2022-08-10T19:59:16.270Z,69.30
2022-08-10T20:02:04.784Z,69.58
2022-08-10T20:04:46.621Z,70.33
2022-08-10T20:07:24.642Z,69.85
2022-08-10T20:10:09.253Z,70.13
2022-08-10T20:12:54.577Z,70.24
2022-08-10T20:15:42.151Z,70.42
2022-08-10T20:18:26.423Z,70.76
2022-08-10T20:21:25.532Z,70.72
2022-08-10T20:24:01.519Z,70.62
2022-08-10T20:26:41.357Z,70.34
2022-08-10T20:29:59.027Z,70.10
2022-08-10T20:32:23.555Z,70.39
2022-08-10T20:34:57.546Z,70.86
2022-08-10T20:38:02.807Z,71.22
2022-08-10T20:40:38.433Z,71.91
2022-08-10T20:43:15.516Z,72.28
2022-08-10T20:46:09.518Z,72.25
2022-08-10T20:49:04.665Z,72.48
2022-08-10T20:52:14.009Z,72.87
2022-08-10T20:54:52.457Z,73.24
2022-08-10T20:57:55.479Z,73.32
2022-08-10T21:00:42.641Z,73.50
2022-08-10T21:03:22.213Z,73.48
2022-08-10T21:06:09.501Z,73.74
2022-08-10T21:08:56.348Z,74.06
2022-08-10T21:11:30.026Z,74.16
2022-08-10T21:14:33.613Z,74.47
2022-08-10T21:17:03.370Z,74.86
2022-08-10T21:19:53.638Z,74.92
2022-08-10T21:22:46.119Z,75.15
2022-08-10T21:25:29.359Z,75.60
2022-08-10T21:28:50.147Z,75.60
2022-08-10T21:31:22.043Z,75.81
2022-08-10T21:34:09.942Z,76.03
2022-08-10T21:37:12.410Z,76.09
2022-08-10T21:40:32.365Z,76.61
2022-08-10T21:43:59.390Z,76.68
2022-08-10T21:47:11.420Z,76.63
2022-08-10T21:50:27.461Z,76.97
2022-08-10T21:53:43.896Z,77.29
2022-08-10T21:57:02.038Z,77.26
2022-08-10T22:00:03.216Z,77.60
2022-08-10T22:02:53.505Z,77.87
2022-08-10T22:05:49.884Z,77.83
2022-08-10T22:09:01.193Z,78.01
2022-08-10T22:11:52.249Z,77.86
2022-08-10T22:15:05.708Z,77.92
2022-08-10T22:21:45.472Z,78.32
2022-08-10T22:25:04.448Z,78.38
2022-08-10T22:27:59.336Z,78.59
2022-08-10T22:31:22.972Z,78.45
2022-08-10T22:31:25.967Z,78.05
2022-08-10T22:34:22.775Z,78.46
2022-08-10T22:37:48.847Z,78.49
2022-08-10T22:40:39.465Z,78.62
2022-08-10T22:43:36.326Z,78.83
2022-08-10T22:46:34.270Z,79.11
2022-08-10T22:49:02.736Z,79.01
2022-08-10T22:51:54.439Z,78.93
2022-08-10T22:54:57.503Z,79.12
2022-08-10T22:57:44.679Z,79.17
2022-08-10T23:00:14.625Z,79.15
2022-08-10T23:02:55.595Z,79.24
2022-08-10T23:05:34.753Z,79.47
2022-08-10T23:08:19.632Z,79.35
2022-08-10T23:11:05.675Z,79.71
2022-08-10T23:13:38.082Z,79.64
2022-08-10T23:16:32.644Z,79.79
2022-08-10T23:19:10.189Z,80.05
2022-08-10T23:22:05.987Z,80.13
2022-08-10T23:24:37.295Z,80.22
2022-08-10T23:27:12.942Z,80.26
2022-08-10T23:30:10.706Z,80.29
2022-08-10T23:32:43.883Z,80.37
2022-08-10T23:36:05.681Z,80.47
2022-08-10T23:38:12.546Z,80.37
2022-08-10T23:40:46.617Z,80.58
2022-08-10T23:43:28.784Z,80.59
2022-08-10T23:46:08.226Z,80.56
2022-08-10T23:48:38.367Z,80.78
2022-08-10T23:51:16.431Z,80.74
2022-08-10T23:53:48.202Z,80.73
2022-08-10T23:56:20.743Z,80.96
2022-08-10T23:58:55.925Z,81.15
